sensor_id;sensor_type;location;lat;lon;timestamp;P1;durP1;ratioP1;P2;durP2;ratioP2
25980;SDS011;13772;52.996;9.124;2023-02-01T14:17:33;6.85;;;1.50;;
25980;SDS011;13772;52.996;9.124;2023-02-01T14:22:43;7.90;;;1.60;;
25980;SDS011;13772;52.996;9.124;2023-02-01T14:25:16;7.10;;;1.52;;
25980;SDS011;13772;52.996;9.124;2023-02-01T14:27:42;6.68;;;1.50;;
25980;SDS011;13772;52.996;9.124;2023-02-01T14:30:07;8.63;;;1.58;;
25980;SDS011;13772;52.996;9.124;2023-02-01T14:32:37;7.75;;;1.70;;
25980;SDS011;13772;52.996;9.124;2023-02-01T14:35:07;7.75;;;1.55;;
25980;SDS011;13772;52.996;9.124;2023-02-01T14:37:37;6.38;;;1.08;;
25980;SDS011;13772;52.996;9.124;2023-02-01T14:40:15;8.20;;;1.33;;
25980;SDS011;13772;52.996;9.124;2023-02-01T14:47:53;9.77;;;1.63;;
25980;SDS011;13772;52.996;9.124;2023-02-01T14:50:27;8.73;;;2.05;;
25980;SDS011;13772;52.996;9.124;2023-02-01T14:55:44;10.48;;;2.28;;
25980;SDS011;13772;52.996;9.124;2023-02-01T15:00:47;10.60;;;1.73;;
25980;SDS011;13772;52.996;9.124;2023-02-01T15:03:25;15.40;;;2.22;;
25980;SDS011;13772;52.996;9.124;2023-02-01T15:05:57;18.42;;;2.22;;
25980;SDS011;13772;52.996;9.124;2023-02-01T15:10:48;13.80;;;2.60;;
25980;SDS011;13772;52.996;9.124;2023-02-01T15:13:21;12.63;;;2.53;;
25980;SDS011;13772;52.996;9.124;2023-02-01T15:16:20;12.80;;;2.25;;
25980;SDS011;13772;52.996;9.124;2023-02-01T15:18:38;13.15;;;3.00;;
25980;SDS011;13772;52.996;9.124;2023-02-01T15:21:04;14.85;;;3.22;;
25980;SDS011;13772;52.996;9.124;2023-02-01T15:23:30;14.13;;;2.67;;
25980;SDS011;13772;52.996;9.124;2023-02-01T15:25:56;16.75;;;3.53;;
25980;SDS011;13772;52.996;9.124;2023-02-01T15:28:21;18.30;;;2.92;;
25980;SDS011;13772;52.996;9.124;2023-02-01T15:30:59;17.65;;;3.97;;
25980;SDS011;13772;52.996;9.124;2023-02-01T15:33:25;17.77;;;2.80;;
25980;SDS011;13772;52.996;9.124;2023-02-01T15:36:07;14.23;;;2.85;;
25980;SDS011;13772;52.996;9.124;2023-02-01T15:38:34;17.42;;;2.78;;
25980;SDS011;13772;52.996;9.124;2023-02-01T15:41:10;18.70;;;3.55;;
25980;SDS011;13772;52.996;9.124;2023-02-01T15:44:25;19.23;;;3.58;;
25980;SDS011;13772;52.996;9.124;2023-02-01T15:46:30;19.70;;;3.10;;
25980;SDS011;13772;52.996;9.124;2023-02-01T15:48:56;17.45;;;4.03;;
25980;SDS011;13772;52.996;9.124;2023-02-01T15:51:23;20.33;;;3.92;;
25980;SDS011;13772;52.996;9.124;2023-02-01T15:53:50;16.25;;;4.07;;
25980;SDS011;13772;52.996;9.124;2023-02-01T15:56:16;21.02;;;4.20;;
25980;SDS011;13772;52.996;9.124;2023-02-01T15:58:46;23.08;;;3.70;;
25980;SDS011;13772;52.996;9.124;2023-02-01T16:01:12;19.48;;;3.13;;
25980;SDS011;13772;52.996;9.124;2023-02-01T16:03:39;21.90;;;3.67;;
25980;SDS011;13772;52.996;9.124;2023-02-01T16:06:07;18.75;;;3.35;;
25980;SDS011;13772;52.996;9.124;2023-02-01T16:08:33;21.98;;;3.40;;
25980;SDS011;13772;52.996;9.124;2023-02-01T16:11:22;14.82;;;2.75;;
25980;SDS011;13772;52.996;9.124;2023-02-01T16:13:45;23.63;;;3.33;;
25980;SDS011;13772;52.996;9.124;2023-02-01T16:16:10;21.42;;;4.00;;
25980;SDS011;13772;52.996;9.124;2023-02-01T16:18:39;20.02;;;3.42;;
25980;SDS011;13772;52.996;9.124;2023-02-01T16:21:04;11.05;;;1.83;;
25980;SDS011;13772;52.996;9.124;2023-02-01T16:23:29;9.23;;;1.73;;
25980;SDS011;13772;52.996;9.124;2023-02-01T16:25:54;10.60;;;1.63;;
25980;SDS011;13772;52.996;9.124;2023-02-01T16:28:20;12.50;;;2.70;;
25980;SDS011;13772;52.996;9.124;2023-02-01T16:30:45;13.60;;;2.60;;
25980;SDS011;13772;52.996;9.124;2023-02-01T16:33:12;16.13;;;2.67;;
25980;SDS011;13772;52.996;9.124;2023-02-01T16:38:08;9.98;;;1.80;;
25980;SDS011;13772;52.996;9.124;2023-02-01T16:40:37;10.27;;;2.13;;
25980;SDS011;13772;52.996;9.124;2023-02-01T16:43:07;10.48;;;2.25;;
25980;SDS011;13772;52.996;9.124;2023-02-01T16:45:33;11.73;;;1.50;;
25980;SDS011;13772;52.996;9.124;2023-02-01T16:47:58;5.55;;;1.35;;
25980;SDS011;13772;52.996;9.124;2023-02-01T16:50:24;7.18;;;1.58;;
25980;SDS011;13772;52.996;9.124;2023-02-01T16:52:50;10.35;;;2.67;;
25980;SDS011;13772;52.996;9.124;2023-02-01T16:55:17;9.50;;;1.63;;
25980;SDS011;13772;52.996;9.124;2023-02-01T16:57:43;10.88;;;2.15;;
25980;SDS011;13772;52.996;9.124;2023-02-01T17:00:11;14.27;;;1.80;;
25980;SDS011;13772;52.996;9.124;2023-02-01T17:02:37;12.87;;;1.80;;
25980;SDS011;13772;52.996;9.124;2023-02-01T17:05:02;6.38;;;1.60;;
25980;SDS011;13772;52.996;9.124;2023-02-01T17:07:27;9.07;;;1.75;;
25980;SDS011;13772;52.996;9.124;2023-02-01T17:09:53;7.95;;;2.33;;
25980;SDS011;13772;52.996;9.124;2023-02-01T17:14:43;13.18;;;2.50;;
25980;SDS011;13772;52.996;9.124;2023-02-01T17:17:08;10.88;;;2.15;;
25980;SDS011;13772;52.996;9.124;2023-02-01T17:19:34;11.70;;;2.00;;
25980;SDS011;13772;52.996;9.124;2023-02-01T17:21:59;12.55;;;2.75;;
25980;SDS011;13772;52.996;9.124;2023-02-01T17:24:25;14.70;;;2.15;;
25980;SDS011;13772;52.996;9.124;2023-02-01T17:26:51;16.90;;;2.55;;
25980;SDS011;13772;52.996;9.124;2023-02-01T17:29:16;16.33;;;3.55;;
25980;SDS011;13772;52.996;9.124;2023-02-01T17:31:44;16.38;;;2.85;;
25980;SDS011;13772;52.996;9.124;2023-02-01T17:34:10;19.30;;;2.85;;
25980;SDS011;13772;52.996;9.124;2023-02-01T17:36:36;18.52;;;3.30;;
25980;SDS011;13772;52.996;9.124;2023-02-01T17:39:01;16.35;;;3.08;;
25980;SDS011;13772;52.996;9.124;2023-02-01T17:41:27;15.32;;;3.03;;
25980;SDS011;13772;52.996;9.124;2023-02-01T17:43:52;9.55;;;2.28;;
25980;SDS011;13772;52.996;9.124;2023-02-01T17:46:17;11.27;;;3.08;;
25980;SDS011;13772;52.996;9.124;2023-02-01T17:48:45;15.15;;;3.38;;
25980;SDS011;13772;52.996;9.124;2023-02-01T17:51:17;11.65;;;2.63;;
25980;SDS011;13772;52.996;9.124;2023-02-01T17:53:42;9.75;;;2.00;;
25980;SDS011;13772;52.996;9.124;2023-02-01T17:56:14;15.23;;;2.67;;
25980;SDS011;13772;52.996;9.124;2023-02-01T17:58:40;18.20;;;2.40;;
25980;SDS011;13772;52.996;9.124;2023-02-01T18:01:05;12.30;;;2.38;;
25980;SDS011;13772;52.996;9.124;2023-02-01T18:03:31;15.68;;;2.67;;
25980;SDS011;13772;52.996;9.124;2023-02-01T18:06:00;18.65;;;3.28;;
25980;SDS011;13772;52.996;9.124;2023-02-01T18:08:26;15.82;;;2.97;;
25980;SDS011;13772;52.996;9.124;2023-02-01T18:10:53;11.20;;;2.92;;
25980;SDS011;13772;52.996;9.124;2023-02-01T18:13:19;21.65;;;3.60;;
25980;SDS011;13772;52.996;9.124;2023-02-01T18:15:44;20.08;;;5.10;;
25980;SDS011;13772;52.996;9.124;2023-02-01T18:18:09;22.00;;;4.97;;
25980;SDS011;13772;52.996;9.124;2023-02-01T18:20:34;20.42;;;4.18;;
25980;SDS011;13772;52.996;9.124;2023-02-01T18:23:00;20.15;;;4.20;;
25980;SDS011;13772;52.996;9.124;2023-02-01T18:25:27;20.42;;;5.35;;
25980;SDS011;13772;52.996;9.124;2023-02-01T18:27:54;21.95;;;3.63;;
25980;SDS011;13772;52.996;9.124;2023-02-01T18:30:20;24.33;;;4.63;;
25980;SDS011;13772;52.996;9.124;2023-02-01T18:32:45;22.75;;;4.88;;
25980;SDS011;13772;52.996;9.124;2023-02-01T18:35:13;28.40;;;5.40;;
25980;SDS011;13772;52.996;9.124;2023-02-01T18:37:40;26.43;;;5.23;;
25980;SDS011;13772;52.996;9.124;2023-02-01T18:40:06;22.75;;;5.03;;
25980;SDS011;13772;52.996;9.124;2023-02-01T18:42:33;18.48;;;4.43;;
25980;SDS011;13772;52.996;9.124;2023-02-01T18:44:59;25.55;;;4.55;;
25980;SDS011;13772;52.996;9.124;2023-02-01T18:47:25;25.17;;;4.07;;
25980;SDS011;13772;52.996;9.124;2023-02-01T18:49:50;23.65;;;4.03;;
25980;SDS011;13772;52.996;9.124;2023-02-01T18:52:15;16.25;;;2.90;;
25980;SDS011;13772;52.996;9.124;2023-02-01T18:54:40;24.95;;;4.15;;
25980;SDS011;13772;52.996;9.124;2023-02-01T18:57:06;34.00;;;4.05;;
25980;SDS011;13772;52.996;9.124;2023-02-01T18:59:33;16.23;;;3.33;;
25980;SDS011;13772;52.996;9.124;2023-02-01T19:01:58;16.70;;;3.33;;
25980;SDS011;13772;52.996;9.124;2023-02-01T19:04:23;16.55;;;2.75;;
25980;SDS011;13772;52.996;9.124;2023-02-01T19:06:48;15.68;;;2.88;;
25980;SDS011;13772;52.996;9.124;2023-02-01T19:09:14;21.90;;;3.00;;
25980;SDS011;13772;52.996;9.124;2023-02-01T19:11:39;23.30;;;4.07;;
25980;SDS011;13772;52.996;9.124;2023-02-01T19:14:04;23.17;;;3.33;;
25980;SDS011;13772;52.996;9.124;2023-02-01T19:16:31;21.48;;;3.70;;
25980;SDS011;13772;52.996;9.124;2023-02-01T19:18:57;24.55;;;4.47;;
25980;SDS011;13772;52.996;9.124;2023-02-01T19:21:23;25.58;;;3.92;;
25980;SDS011;13772;52.996;9.124;2023-02-01T19:23:48;16.48;;;3.55;;
25980;SDS011;13772;52.996;9.124;2023-02-01T19:26:14;22.80;;;3.88;;
25980;SDS011;13772;52.996;9.124;2023-02-01T19:28:39;20.42;;;3.67;;
25980;SDS011;13772;52.996;9.124;2023-02-01T19:31:05;29.92;;;4.57;;
25980;SDS011;13772;52.996;9.124;2023-02-01T19:33:31;20.60;;;3.35;;
25980;SDS011;13772;52.996;9.124;2023-02-01T19:35:57;24.88;;;4.63;;
25980;SDS011;13772;52.996;9.124;2023-02-01T19:38:22;19.48;;;3.75;;
25980;SDS011;13772;52.996;9.124;2023-02-01T19:40:48;27.52;;;4.07;;
25980;SDS011;13772;52.996;9.124;2023-02-01T19:43:13;21.35;;;3.50;;
25980;SDS011;13772;52.996;9.124;2023-02-01T19:45:38;19.48;;;3.72;;
25980;SDS011;13772;52.996;9.124;2023-02-01T19:48:03;23.70;;;3.45;;
25980;SDS011;13772;52.996;9.124;2023-02-01T19:50:31;28.58;;;4.90;;
25980;SDS011;13772;52.996;9.124;2023-02-01T19:52:56;19.85;;;3.38;;
25980;SDS011;13772;52.996;9.124;2023-02-01T19:55:22;16.25;;;2.83;;
25980;SDS011;13772;52.996;9.124;2023-02-01T19:57:47;27.60;;;4.00;;
25980;SDS011;13772;52.996;9.124;2023-02-01T20:00:13;16.33;;;3.53;;
25980;SDS011;13772;52.996;9.124;2023-02-01T20:02:38;20.75;;;3.58;;
25980;SDS011;13772;52.996;9.124;2023-02-01T20:05:04;24.20;;;3.97;;
25980;SDS011;13772;52.996;9.124;2023-02-01T20:07:29;13.70;;;3.05;;
25980;SDS011;13772;52.996;9.124;2023-02-01T20:09:54;27.42;;;4.13;;
25980;SDS011;13772;52.996;9.124;2023-02-01T20:12:20;17.50;;;3.17;;
25980;SDS011;13772;52.996;9.124;2023-02-01T20:14:45;19.90;;;3.50;;
25980;SDS011;13772;52.996;9.124;2023-02-01T20:17:13;16.85;;;3.03;;
25980;SDS011;13772;52.996;9.124;2023-02-01T20:19:38;17.63;;;3.75;;
25980;SDS011;13772;52.996;9.124;2023-02-01T20:22:03;17.67;;;3.17;;
25980;SDS011;13772;52.996;9.124;2023-02-01T20:24:29;25.33;;;3.90;;
25980;SDS011;13772;52.996;9.124;2023-02-01T20:26:54;19.50;;;4.40;;
25980;SDS011;13772;52.996;9.124;2023-02-01T20:29:19;18.15;;;3.40;;
25980;SDS011;13772;52.996;9.124;2023-02-01T20:31:44;20.55;;;3.90;;
25980;SDS011;13772;52.996;9.124;2023-02-01T20:34:10;23.42;;;3.88;;
25980;SDS011;13772;52.996;9.124;2023-02-01T20:36:35;17.55;;;4.10;;
25980;SDS011;13772;52.996;9.124;2023-02-01T20:39:00;19.13;;;3.40;;
25980;SDS011;13772;52.996;9.124;2023-02-01T20:41:26;23.50;;;4.38;;
25980;SDS011;13772;52.996;9.124;2023-02-01T20:43:51;19.98;;;3.78;;
25980;SDS011;13772;52.996;9.124;2023-02-01T20:46:17;22.33;;;3.72;;
25980;SDS011;13772;52.996;9.124;2023-02-01T20:48:43;19.60;;;3.10;;
25980;SDS011;13772;52.996;9.124;2023-02-01T20:51:08;21.52;;;4.32;;
25980;SDS011;13772;52.996;9.124;2023-02-01T20:53:34;17.90;;;3.55;;
25980;SDS011;13772;52.996;9.124;2023-02-01T20:55:59;23.92;;;3.40;;
25980;SDS011;13772;52.996;9.124;2023-02-01T20:58:24;20.52;;;3.35;;
25980;SDS011;13772;52.996;9.124;2023-02-01T21:00:50;23.63;;;4.05;;
25980;SDS011;13772;52.996;9.124;2023-02-01T21:03:15;25.08;;;4.28;;
25980;SDS011;13772;52.996;9.124;2023-02-01T21:05:48;19.10;;;3.75;;
25980;SDS011;13772;52.996;9.124;2023-02-01T21:08:13;29.90;;;3.58;;
25980;SDS011;13772;52.996;9.124;2023-02-01T21:10:39;26.45;;;3.53;;
25980;SDS011;13772;52.996;9.124;2023-02-01T21:13:04;16.90;;;2.90;;
25980;SDS011;13772;52.996;9.124;2023-02-01T21:15:30;23.10;;;3.55;;
25980;SDS011;13772;52.996;9.124;2023-02-01T21:17:58;23.83;;;4.13;;
25980;SDS011;13772;52.996;9.124;2023-02-01T21:20:23;25.02;;;3.10;;
25980;SDS011;13772;52.996;9.124;2023-02-01T21:22:48;15.45;;;3.58;;
25980;SDS011;13772;52.996;9.124;2023-02-01T21:25:14;22.90;;;2.92;;
25980;SDS011;13772;52.996;9.124;2023-02-01T21:27:39;18.15;;;2.83;;
25980;SDS011;13772;52.996;9.124;2023-02-01T21:30:04;22.55;;;3.22;;
25980;SDS011;13772;52.996;9.124;2023-02-01T21:32:30;21.50;;;3.63;;
25980;SDS011;13772;52.996;9.124;2023-02-01T21:34:55;25.50;;;4.20;;
25980;SDS011;13772;52.996;9.124;2023-02-01T21:37:22;21.00;;;3.03;;
25980;SDS011;13772;52.996;9.124;2023-02-01T21:39:49;18.60;;;2.92;;
25980;SDS011;13772;52.996;9.124;2023-02-01T21:42:15;19.10;;;3.05;;
25980;SDS011;13772;52.996;9.124;2023-02-01T21:44:45;17.48;;;3.05;;
25980;SDS011;13772;52.996;9.124;2023-02-01T21:47:11;22.73;;;4.18;;
25980;SDS011;13772;52.996;9.124;2023-02-01T21:49:37;22.80;;;3.88;;
25980;SDS011;13772;52.996;9.124;2023-02-01T21:52:02;26.00;;;3.55;;
25980;SDS011;13772;52.996;9.124;2023-02-01T21:54:27;21.08;;;3.60;;
25980;SDS011;13772;52.996;9.124;2023-02-01T21:56:52;31.77;;;4.63;;
25980;SDS011;13772;52.996;9.124;2023-02-01T21:59:18;19.10;;;3.35;;
25980;SDS011;13772;52.996;9.124;2023-02-01T22:01:43;25.98;;;4.13;;
25980;SDS011;13772;52.996;9.124;2023-02-01T22:04:08;20.60;;;3.30;;
25980;SDS011;13772;52.996;9.124;2023-02-01T22:06:35;21.92;;;3.63;;
25980;SDS011;13772;52.996;9.124;2023-02-01T22:09:00;22.48;;;3.70;;
25980;SDS011;13772;52.996;9.124;2023-02-01T22:11:26;23.60;;;4.03;;
25980;SDS011;13772;52.996;9.124;2023-02-01T22:13:51;21.95;;;3.75;;
25980;SDS011;13772;52.996;9.124;2023-02-01T22:16:17;20.95;;;3.25;;
25980;SDS011;13772;52.996;9.124;2023-02-01T22:18:45;18.80;;;3.30;;
25980;SDS011;13772;52.996;9.124;2023-02-01T22:21:11;26.25;;;3.63;;
25980;SDS011;13772;52.996;9.124;2023-02-01T22:23:36;23.45;;;4.00;;
25980;SDS011;13772;52.996;9.124;2023-02-01T22:26:02;20.70;;;3.35;;
25980;SDS011;13772;52.996;9.124;2023-02-01T22:28:28;23.15;;;3.55;;
25980;SDS011;13772;52.996;9.124;2023-02-01T22:30:53;18.70;;;3.25;;
25980;SDS011;13772;52.996;9.124;2023-02-01T22:33:19;23.42;;;3.47;;
25980;SDS011;13772;52.996;9.124;2023-02-01T22:35:47;24.77;;;3.63;;
25980;SDS011;13772;52.996;9.124;2023-02-01T22:38:13;11.63;;;2.75;;
25980;SDS011;13772;52.996;9.124;2023-02-01T22:40:38;17.02;;;3.10;;
25980;SDS011;13772;52.996;9.124;2023-02-01T22:43:03;18.83;;;3.35;;
25980;SDS011;13772;52.996;9.124;2023-02-01T22:45:30;21.77;;;3.28;;
25980;SDS011;13772;52.996;9.124;2023-02-01T22:47:55;15.98;;;2.97;;
25980;SDS011;13772;52.996;9.124;2023-02-01T22:50:20;23.80;;;3.63;;
25980;SDS011;13772;52.996;9.124;2023-02-01T22:52:45;22.25;;;3.53;;
25980;SDS011;13772;52.996;9.124;2023-02-01T22:55:11;16.63;;;2.97;;
